createdAt,value
2023-12-10T00:01:18.699Z,4.97
2023-12-10T00:03:46.086Z,4.47
2023-12-10T00:06:14.613Z,5.90
2023-12-10T00:08:42.238Z,4.22
2023-12-10T00:11:09.329Z,4.35
2023-12-10T00:13:36.886Z,4.30
2023-12-10T00:16:04.180Z,4.22
2023-12-10T00:18:31.265Z,3.72
2023-12-10T00:20:58.599Z,3.42
2023-12-10T00:23:25.565Z,4.65
2023-12-10T00:25:52.619Z,4.88
2023-12-10T00:28:19.767Z,4.45
2023-12-10T00:30:48.734Z,4.72
2023-12-10T00:33:17.198Z,3.55
2023-12-10T00:35:44.523Z,4.00
2023-12-10T00:38:11.627Z,4.18
2023-12-10T00:40:39.174Z,4.45
2023-12-10T00:43:06.145Z,4.53
2023-12-10T00:45:33.308Z,4.30
2023-12-10T00:48:00.456Z,3.97
2023-12-10T00:50:27.614Z,4.00
2023-12-10T00:52:54.760Z,4.13
2023-12-10T00:55:21.732Z,4.25
2023-12-10T00:57:48.880Z,4.45
2023-12-10T01:00:16.170Z,2.97
2023-12-10T01:02:43.967Z,4.28
2023-12-10T01:05:11.271Z,4.60
2023-12-10T01:07:38.211Z,3.78
2023-12-10T01:10:08.812Z,3.60
2023-12-10T01:12:38.501Z,4.50
2023-12-10T01:15:06.608Z,2.50
2023-12-10T01:17:34.347Z,3.95
2023-12-10T01:20:01.901Z,4.63
2023-12-10T01:22:30.484Z,6.00
2023-12-10T01:24:59.108Z,4.15
2023-12-10T01:27:26.260Z,4.13
2023-12-10T01:29:53.854Z,4.35
2023-12-10T01:32:21.951Z,4.32
2023-12-10T01:34:49.525Z,3.90
2023-12-10T01:37:16.700Z,3.70
2023-12-10T01:39:43.881Z,4.43
2023-12-10T01:42:10.841Z,3.78
2023-12-10T01:44:37.856Z,4.05
2023-12-10T01:47:05.618Z,3.90
2023-12-10T01:49:32.874Z,4.22
2023-12-10T01:51:59.821Z,4.07
2023-12-10T01:54:27.391Z,5.50
2023-12-10T01:57:06.077Z,4.68
2023-12-10T01:59:36.314Z,4.55
2023-12-10T02:02:04.573Z,5.55
2023-12-10T02:04:31.844Z,5.75
2023-12-10T02:06:59.075Z,4.90
2023-12-10T02:09:25.977Z,3.55
2023-12-10T02:11:54.122Z,4.63
2023-12-10T02:14:21.271Z,4.72
2023-12-10T02:16:48.360Z,4.60
2023-12-10T02:19:15.622Z,2.95
2023-12-10T02:21:47.288Z,7.95
2023-12-10T02:24:18.061Z,5.25
2023-12-10T02:26:45.378Z,4.28
2023-12-10T02:29:12.680Z,5.05
2023-12-10T02:31:39.822Z,5.82
2023-12-10T02:34:07.384Z,3.40
2023-12-10T02:36:34.632Z,5.38
2023-12-10T02:39:01.592Z,5.55
2023-12-10T02:41:28.732Z,4.40
2023-12-10T02:43:55.691Z,5.90
2023-12-10T02:46:22.677Z,4.28
2023-12-10T02:48:51.191Z,4.18
2023-12-10T02:51:18.567Z,3.45
2023-12-10T02:53:45.610Z,4.82
2023-12-10T02:56:12.600Z,6.72
2023-12-10T02:58:39.719Z,5.75
2023-12-10T03:01:06.887Z,4.15
2023-12-10T03:03:34.277Z,4.93
2023-12-10T03:06:01.647Z,4.63
2023-12-10T03:08:28.673Z,5.82
2023-12-10T03:10:55.669Z,4.20
2023-12-10T03:13:22.818Z,4.38
2023-12-10T03:15:49.772Z,5.43
2023-12-10T03:18:17.061Z,4.57
2023-12-10T03:20:44.333Z,4.65
2023-12-10T03:23:11.314Z,4.50
2023-12-10T03:25:38.313Z,4.47
2023-12-10T03:28:05.571Z,4.45
2023-12-10T03:30:32.579Z,4.93
2023-12-10T03:32:59.623Z,5.15
2023-12-10T03:35:26.607Z,4.60
2023-12-10T03:37:54.018Z,4.80
2023-12-10T03:40:21.269Z,3.92
2023-12-10T03:42:48.555Z,4.05
2023-12-10T03:45:16.147Z,5.75
2023-12-10T03:47:48.167Z,4.65
2023-12-10T03:50:16.888Z,6.28
2023-12-10T03:52:44.321Z,6.78
2023-12-10T03:55:11.545Z,8.48
2023-12-10T03:57:38.672Z,5.28
2023-12-10T04:00:06.462Z,4.78
2023-12-10T04:02:33.624Z,4.25
2023-12-10T04:05:00.640Z,4.55
2023-12-10T04:07:27.776Z,6.22
2023-12-10T04:09:54.724Z,4.80
2023-12-10T04:12:21.794Z,5.28
2023-12-10T04:14:48.776Z,2.92
2023-12-10T04:17:16.976Z,4.95
2023-12-10T04:19:44.234Z,5.35
2023-12-10T04:22:11.533Z,4.45
2023-12-10T04:24:38.710Z,5.30
2023-12-10T04:27:06.092Z,5.32
2023-12-10T04:29:33.200Z,5.80
2023-12-10T04:32:00.186Z,6.30
2023-12-10T04:34:27.253Z,3.92
2023-12-10T04:36:54.447Z,3.67
2023-12-10T04:39:21.857Z,5.20
2023-12-10T04:41:49.551Z,4.45
2023-12-10T04:44:16.630Z,6.05
2023-12-10T04:46:43.621Z,3.72
2023-12-10T04:49:10.891Z,4.85
2023-12-10T04:51:38.265Z,4.65
2023-12-10T04:54:05.350Z,4.05
2023-12-10T04:56:32.365Z,4.40
2023-12-10T04:58:59.262Z,4.25
2023-12-10T05:01:26.639Z,5.15
2023-12-10T05:03:53.979Z,3.95
2023-12-10T05:06:21.298Z,3.85
2023-12-10T05:08:48.322Z,4.00
2023-12-10T05:11:15.233Z,4.60
2023-12-10T05:13:42.228Z,4.18
2023-12-10T05:16:09.612Z,4.93
2023-12-10T05:18:36.860Z,4.38
2023-12-10T05:21:04.073Z,5.70
2023-12-10T05:23:30.970Z,4.68
2023-12-10T05:25:58.120Z,5.07
2023-12-10T05:28:25.219Z,4.32
2023-12-10T05:30:52.252Z,4.13
2023-12-10T05:33:19.310Z,4.82
2023-12-10T05:35:46.268Z,4.03
2023-12-10T05:38:13.465Z,5.22
2023-12-10T05:40:40.358Z,3.92
2023-12-10T05:43:07.597Z,6.65
2023-12-10T05:45:34.911Z,4.18
2023-12-10T05:48:01.996Z,5.18
2023-12-10T05:50:28.910Z,4.65
2023-12-10T05:52:56.164Z,5.13
2023-12-10T05:55:23.157Z,4.63
2023-12-10T05:57:50.265Z,6.40
2023-12-10T06:00:17.804Z,4.95
2023-12-10T06:02:45.071Z,5.25
2023-12-10T06:05:12.692Z,5.75
2023-12-10T06:07:40.546Z,3.75
2023-12-10T06:10:08.754Z,4.60
2023-12-10T06:12:36.193Z,4.80
2023-12-10T06:15:03.232Z,6.13
2023-12-10T06:17:30.258Z,3.35
2023-12-10T06:19:57.274Z,5.10
2023-12-10T06:22:24.657Z,3.88
2023-12-10T06:24:52.779Z,4.90
2023-12-10T06:27:20.040Z,4.68
2023-12-10T06:29:47.231Z,4.13
2023-12-10T06:32:14.155Z,6.28
2023-12-10T06:34:41.251Z,5.03
2023-12-10T06:37:08.324Z,4.53
2023-12-10T06:39:35.338Z,5.07
2023-12-10T06:42:02.705Z,5.03
2023-12-10T06:44:29.807Z,4.43
2023-12-10T06:46:56.848Z,4.53
2023-12-10T06:49:24.413Z,6.07
2023-12-10T06:51:51.906Z,6.32
2023-12-10T06:54:19.232Z,4.28
2023-12-10T06:56:46.197Z,5.30
2023-12-10T06:59:13.322Z,4.72
2023-12-10T07:01:40.497Z,4.50
2023-12-10T07:04:09.534Z,3.83
2023-12-10T07:06:37.056Z,3.85
2023-12-10T07:09:07.972Z,5.22
2023-12-10T07:11:35.077Z,4.70
2023-12-10T07:14:02.185Z,4.45
2023-12-10T07:16:29.368Z,4.32
2023-12-10T07:18:56.870Z,4.97
2023-12-10T07:21:24.280Z,4.47
2023-12-10T07:23:51.542Z,7.32
2023-12-10T07:26:25.871Z,5.40
2023-12-10T07:28:53.421Z,5.10
2023-12-10T07:31:20.522Z,4.70
2023-12-10T07:33:47.774Z,4.43
2023-12-10T07:36:15.511Z,4.80
2023-12-10T07:38:42.710Z,4.25
2023-12-10T07:41:10.070Z,5.00
2023-12-10T07:43:37.450Z,6.07
2023-12-10T07:46:04.702Z,5.93
2023-12-10T07:48:32.092Z,4.32
2023-12-10T07:51:00.149Z,4.20
2023-12-10T07:53:28.507Z,5.93
2023-12-10T07:55:55.511Z,5.53
2023-12-10T07:58:23.495Z,4.65
2023-12-10T08:00:51.138Z,3.97
2023-12-10T08:03:18.594Z,7.35
2023-12-10T08:05:47.462Z,6.75
2023-12-10T08:08:14.427Z,4.28
2023-12-10T08:10:41.471Z,6.82
2023-12-10T08:13:08.640Z,5.80
2023-12-10T08:15:35.625Z,4.57
2023-12-10T08:18:02.801Z,4.72
2023-12-10T08:20:30.206Z,5.13
2023-12-10T08:22:57.489Z,9.25
2023-12-10T08:25:24.688Z,6.53
2023-12-10T08:27:52.187Z,6.30
2023-12-10T08:30:19.253Z,8.02
2023-12-10T08:32:46.570Z,5.90
2023-12-10T08:35:13.571Z,6.30
2023-12-10T08:37:41.433Z,6.82
2023-12-10T08:40:08.720Z,6.50
2023-12-10T08:42:36.061Z,6.38
2023-12-10T08:45:03.010Z,6.22
2023-12-10T08:47:30.224Z,7.20
2023-12-10T08:49:57.645Z,5.82
2023-12-10T08:52:24.718Z,5.95
2023-12-10T08:54:52.109Z,5.00
2023-12-10T08:57:19.273Z,6.20
2023-12-10T08:59:47.365Z,6.10
2023-12-10T09:02:14.581Z,6.00
2023-12-10T09:04:41.879Z,7.22
2023-12-10T09:07:08.878Z,7.07
2023-12-10T09:09:36.139Z,7.47
2023-12-10T09:12:03.537Z,6.40
2023-12-10T09:14:30.579Z,5.90
2023-12-10T09:16:57.888Z,7.05
2023-12-10T09:19:26.831Z,7.80
2023-12-10T09:21:54.167Z,6.25
2023-12-10T09:24:22.086Z,6.32
2023-12-10T09:26:50.423Z,6.47
2023-12-10T09:29:18.141Z,6.25
2023-12-10T09:31:45.092Z,6.22
2023-12-10T09:34:12.592Z,6.90
2023-12-10T09:36:39.793Z,8.60
2023-12-10T09:39:07.159Z,6.20
2023-12-10T09:41:34.154Z,8.55
2023-12-10T09:44:01.334Z,5.93
2023-12-10T09:46:31.556Z,8.32
2023-12-10T09:48:59.539Z,7.03
2023-12-10T09:51:26.867Z,7.05
2023-12-10T09:53:53.746Z,7.03
2023-12-10T09:56:20.955Z,8.35
2023-12-10T09:58:48.356Z,6.95
2023-12-10T10:01:15.521Z,7.50
2023-12-10T10:03:42.774Z,6.00
2023-12-10T10:06:10.828Z,8.70
2023-12-10T10:08:38.214Z,5.93
2023-12-10T10:11:05.390Z,5.40
2023-12-10T10:13:32.464Z,5.72
2023-12-10T10:16:10.248Z,8.32
2023-12-10T10:18:42.845Z,6.90
2023-12-10T10:21:11.094Z,7.38
2023-12-10T10:23:38.137Z,5.93
2023-12-10T10:26:05.291Z,4.72
2023-12-10T10:28:34.497Z,5.88
2023-12-10T10:31:02.744Z,6.60
2023-12-10T10:33:30.359Z,5.50
2023-12-10T10:36:00.580Z,5.63
2023-12-10T10:38:30.337Z,6.35
2023-12-10T10:43:26.612Z,7.47
2023-12-10T10:45:57.691Z,5.90
2023-12-10T10:48:27.473Z,5.40
2023-12-10T10:50:56.176Z,5.32
2023-12-10T10:53:24.373Z,5.10
2023-12-10T10:55:52.487Z,5.80
2023-12-10T10:58:29.703Z,6.40
2023-12-10T11:01:00.709Z,8.27
2023-12-10T11:03:28.608Z,6.05
2023-12-10T11:05:58.518Z,5.63
2023-12-10T11:11:02.794Z,4.72
2023-12-10T11:13:48.479Z,5.90
2023-12-10T11:16:15.942Z,6.57
2023-12-10T11:18:55.538Z,6.43
2023-12-10T11:23:50.142Z,7.43
2023-12-10T11:26:17.142Z,6.32
2023-12-10T11:28:44.648Z,4.70
2023-12-10T11:31:11.895Z,5.20
2023-12-10T11:33:43.427Z,5.18
2023-12-10T11:36:33.451Z,4.97
2023-12-10T11:39:01.447Z,4.75
2023-12-10T11:41:29.740Z,5.53
2023-12-10T11:43:56.736Z,5.60
2023-12-10T11:46:31.910Z,5.50
2023-12-10T11:49:07.795Z,4.10
2023-12-10T11:51:39.568Z,5.03
2023-12-10T11:54:10.834Z,4.47
2023-12-10T11:56:37.845Z,5.10
2023-12-10T11:59:11.439Z,5.95
2023-12-10T12:01:39.835Z,5.60
2023-12-10T12:04:07.361Z,7.03
2023-12-10T12:06:40.483Z,4.68
2023-12-10T12:09:08.081Z,4.75
2023-12-10T12:11:35.391Z,7.38
2023-12-10T12:14:03.717Z,4.43
2023-12-10T12:16:30.938Z,4.78
2023-12-10T12:18:58.249Z,3.88
2023-12-10T12:21:25.480Z,4.03
2023-12-10T12:23:52.463Z,3.40
2023-12-10T12:26:19.592Z,3.38
2023-12-10T12:28:48.708Z,5.50
2023-12-10T12:31:16.173Z,5.07
2023-12-10T12:33:43.432Z,4.53
2023-12-10T12:36:10.708Z,5.97
2023-12-10T12:38:37.633Z,5.28
2023-12-10T12:41:04.732Z,4.45
2023-12-10T12:43:32.319Z,4.80
2023-12-10T12:45:59.745Z,4.63
2023-12-10T12:48:27.225Z,5.30
2023-12-10T12:50:54.509Z,4.25
2023-12-10T12:53:21.557Z,4.07
2023-12-10T12:55:48.703Z,4.53
2023-12-10T12:58:16.927Z,7.15
2023-12-10T13:00:43.891Z,3.53
2023-12-10T13:03:11.136Z,3.47
2023-12-10T13:05:38.478Z,3.60
2023-12-10T13:08:05.713Z,4.80
2023-12-10T13:10:33.445Z,4.43
2023-12-10T13:13:00.548Z,5.03
2023-12-10T13:15:27.573Z,4.65
2023-12-10T13:17:54.563Z,3.15
2023-12-10T13:20:21.686Z,4.35
2023-12-10T13:22:48.550Z,4.50
2023-12-10T13:25:16.038Z,3.78
2023-12-10T13:27:43.177Z,5.72
2023-12-10T13:30:10.696Z,5.53
2023-12-10T13:32:38.349Z,5.63
2023-12-10T13:35:05.759Z,3.50
2023-12-10T13:37:33.135Z,4.15
2023-12-10T13:40:00.917Z,5.85
2023-12-10T13:42:28.187Z,5.10
2023-12-10T13:44:55.451Z,3.90
2023-12-10T13:47:22.306Z,3.65
2023-12-10T13:49:50.308Z,3.00
2023-12-10T13:52:17.234Z,3.67
2023-12-10T13:54:44.222Z,4.15
2023-12-10T13:57:11.516Z,4.45
2023-12-10T13:59:38.920Z,3.50
2023-12-10T14:02:08.480Z,5.47
2023-12-10T14:04:35.478Z,6.63
2023-12-10T14:07:03.358Z,5.82
2023-12-10T14:09:30.429Z,7.75
2023-12-10T14:11:57.783Z,4.05
2023-12-10T14:14:24.947Z,3.67
2023-12-10T14:16:53.376Z,3.35
2023-12-10T14:19:20.880Z,4.20
2023-12-10T14:21:48.048Z,3.03
2023-12-10T14:24:15.303Z,3.47
2023-12-10T14:26:42.650Z,4.03
2023-12-10T14:29:09.649Z,3.00
2023-12-10T14:31:36.700Z,3.00
2023-12-10T14:34:03.977Z,5.07
2023-12-10T14:36:31.262Z,3.08
2023-12-10T14:38:58.865Z,3.45
2023-12-10T14:41:26.134Z,3.92
2023-12-10T14:43:53.207Z,5.40
2023-12-10T14:46:20.902Z,2.20
2023-12-10T14:48:48.093Z,4.07
2023-12-10T14:51:15.084Z,3.25
2023-12-10T14:53:42.380Z,3.20
2023-12-10T14:56:10.001Z,3.05
2023-12-10T14:58:36.991Z,4.35
2023-12-10T15:01:05.067Z,3.53
2023-12-10T15:03:32.507Z,5.05
2023-12-10T15:05:59.846Z,5.22
2023-12-10T15:08:27.036Z,4.85
2023-12-10T15:10:54.045Z,3.42
2023-12-10T15:13:21.560Z,4.57
2023-12-10T15:15:48.932Z,3.80
2023-12-10T15:18:16.045Z,3.85
2023-12-10T15:20:43.902Z,4.50
2023-12-10T15:23:11.200Z,4.00
2023-12-10T15:25:38.408Z,3.72
2023-12-10T15:28:05.955Z,4.55
2023-12-10T15:30:36.004Z,3.08
2023-12-10T15:33:04.806Z,3.45
2023-12-10T15:35:31.855Z,3.33
2023-12-10T15:37:58.882Z,4.78
2023-12-10T15:40:25.881Z,4.55
2023-12-10T15:42:53.106Z,3.85
2023-12-10T15:45:21.388Z,3.42
2023-12-10T15:47:49.504Z,4.60
2023-12-10T15:50:16.814Z,3.42
2023-12-10T15:52:44.175Z,3.60
2023-12-10T15:55:12.006Z,3.55
2023-12-10T15:57:40.131Z,3.05
2023-12-10T16:02:44.410Z,3.38
2023-12-10T16:05:11.442Z,2.70
2023-12-10T16:07:48.264Z,3.92
2023-12-10T16:12:45.814Z,5.97
2023-12-10T16:15:13.125Z,5.72
2023-12-10T16:17:40.189Z,5.72
2023-12-10T16:20:08.266Z,5.60
2023-12-10T16:22:35.482Z,4.95
2023-12-10T16:25:02.568Z,6.20
2023-12-10T16:27:29.801Z,5.18
2023-12-10T16:29:57.041Z,1.95
2023-12-10T16:32:24.081Z,3.30
2023-12-10T16:34:51.370Z,2.80
2023-12-10T16:37:19.277Z,1.83
2023-12-10T16:39:48.506Z,3.63
2023-12-10T16:42:15.540Z,2.78
2023-12-10T16:44:42.679Z,1.80
2023-12-10T16:47:10.341Z,1.80
2023-12-10T16:49:37.613Z,2.47
2023-12-10T16:52:05.073Z,1.35
2023-12-10T16:54:32.141Z,2.00
2023-12-10T16:56:59.105Z,2.70
2023-12-10T16:59:26.040Z,1.83
2023-12-10T17:01:54.699Z,1.77
2023-12-10T17:04:22.086Z,2.28
2023-12-10T17:06:49.372Z,2.78
2023-12-10T17:09:16.383Z,1.98
2023-12-10T17:11:43.367Z,2.60
2023-12-10T17:14:10.518Z,4.07
2023-12-10T17:16:37.532Z,2.55
2023-12-10T17:19:04.689Z,2.17
2023-12-10T17:21:32.106Z,2.30
2023-12-10T17:23:59.081Z,2.00
2023-12-10T17:26:26.077Z,1.83
2023-12-10T17:28:53.308Z,2.17
2023-12-10T17:31:20.638Z,1.55
2023-12-10T17:33:47.823Z,2.60
2023-12-10T17:36:15.141Z,2.05
2023-12-10T17:38:42.136Z,2.50
2023-12-10T17:41:09.245Z,1.40
2023-12-10T17:43:36.440Z,1.83
2023-12-10T17:46:04.142Z,1.45
2023-12-10T17:48:31.398Z,2.88
2023-12-10T17:51:06.579Z,1.60
2023-12-10T17:53:41.197Z,1.80
2023-12-10T17:56:09.560Z,2.03
2023-12-10T17:58:36.484Z,4.07
2023-12-10T18:01:03.516Z,2.63
2023-12-10T18:03:30.757Z,1.88
2023-12-10T18:05:57.686Z,1.58
2023-12-10T18:08:24.756Z,2.22
2023-12-10T18:10:51.836Z,1.75
2023-12-10T18:13:19.294Z,1.77
2023-12-10T18:15:48.955Z,2.38
2023-12-10T18:18:16.317Z,1.50
2023-12-10T18:20:43.614Z,1.98
2023-12-10T18:23:10.749Z,1.77
2023-12-10T18:25:37.864Z,2.50
2023-12-10T18:28:05.301Z,2.15
2023-12-10T18:30:32.775Z,2.53
2023-12-10T18:33:00.042Z,2.40
2023-12-10T18:35:28.014Z,2.35
2023-12-10T18:37:55.149Z,1.60
2023-12-10T18:40:23.377Z,1.98
2023-12-10T18:42:50.526Z,1.70
2023-12-10T18:45:17.534Z,3.17
2023-12-10T18:47:44.493Z,2.85
2023-12-10T18:50:11.559Z,2.55
2023-12-10T18:52:38.665Z,3.55
2023-12-10T18:55:06.513Z,4.20
2023-12-10T18:57:34.385Z,2.00
2023-12-10T19:00:03.100Z,2.15
2023-12-10T19:02:30.113Z,1.67
2023-12-10T19:04:57.192Z,2.05
2023-12-10T19:07:24.393Z,2.08
2023-12-10T19:09:52.241Z,2.20
2023-12-10T19:12:20.457Z,1.60
2023-12-10T19:14:47.754Z,1.25
2023-12-10T19:17:14.887Z,3.55
2023-12-10T19:19:42.140Z,1.58
2023-12-10T19:22:09.315Z,1.17
2023-12-10T19:24:36.735Z,1.63
2023-12-10T19:27:04.362Z,2.15
2023-12-10T19:29:32.914Z,2.60
2023-12-10T19:31:59.969Z,2.38
2023-12-10T19:34:28.454Z,1.48
2023-12-10T19:36:55.772Z,1.55
2023-12-10T19:39:22.809Z,1.30
2023-12-10T19:41:50.116Z,2.13
2023-12-10T19:44:19.224Z,1.88
2023-12-10T19:46:46.323Z,1.58
2023-12-10T19:49:13.451Z,1.83
2023-12-10T19:51:40.441Z,3.10
2023-12-10T19:54:07.571Z,1.90
2023-12-10T19:56:34.931Z,1.95
2023-12-10T19:59:02.080Z,2.67
2023-12-10T20:01:29.062Z,2.25
2023-12-10T20:03:56.489Z,2.20
2023-12-10T20:06:23.597Z,2.25
2023-12-10T20:08:52.325Z,2.17
2023-12-10T20:11:19.376Z,2.15
2023-12-10T20:13:46.501Z,1.98
2023-12-10T20:16:13.925Z,2.25
2023-12-10T20:18:40.930Z,3.03
2023-12-10T20:21:09.161Z,2.58
2023-12-10T20:23:36.209Z,4.40
2023-12-10T20:26:03.360Z,3.38
2023-12-10T20:28:31.841Z,3.67
2023-12-10T20:30:58.727Z,2.95
2023-12-10T20:33:27.355Z,3.17
2023-12-10T20:35:54.661Z,2.85
2023-12-10T20:38:21.780Z,3.45
2023-12-10T20:40:50.614Z,4.72
2023-12-10T20:43:19.053Z,4.32
2023-12-10T20:45:46.354Z,5.28
2023-12-10T20:48:13.885Z,3.63
2023-12-10T20:50:41.215Z,4.00
2023-12-10T20:53:08.521Z,5.68
2023-12-10T20:55:35.620Z,4.70
2023-12-10T20:58:02.652Z,4.63
2023-12-10T21:00:34.555Z,4.88
2023-12-10T21:03:03.945Z,4.10
2023-12-10T21:05:31.177Z,4.43
2023-12-10T21:07:58.173Z,4.28
2023-12-10T21:10:25.299Z,5.20
2023-12-10T21:12:54.418Z,6.38
2023-12-10T21:15:21.492Z,6.25
2023-12-10T21:17:48.706Z,4.38
2023-12-10T21:20:15.929Z,5.55
2023-12-10T21:22:42.858Z,6.55
2023-12-10T21:25:12.346Z,5.40
2023-12-10T21:27:41.569Z,6.05
2023-12-10T21:30:09.751Z,4.70
2023-12-10T21:32:36.992Z,6.22
2023-12-10T21:35:04.585Z,5.53
2023-12-10T21:37:31.977Z,8.30
2023-12-10T21:40:00.443Z,5.85
2023-12-10T21:42:27.810Z,6.90
2023-12-10T21:44:56.337Z,7.88
2023-12-10T21:47:23.824Z,5.15
2023-12-10T21:49:51.265Z,5.30
2023-12-10T21:52:18.667Z,8.38
2023-12-10T21:54:47.345Z,6.25
2023-12-10T21:59:43.030Z,6.88
2023-12-10T22:02:10.015Z,6.20
2023-12-10T22:04:37.664Z,7.80
2023-12-10T22:07:05.083Z,6.93
2023-12-10T22:09:32.083Z,7.88
2023-12-10T22:11:59.145Z,7.43
2023-12-10T22:14:26.281Z,5.95
2023-12-10T22:16:53.597Z,4.80
2023-12-10T22:19:21.009Z,5.03
2023-12-10T22:21:48.296Z,5.18
2023-12-10T22:24:15.663Z,6.45
2023-12-10T22:26:42.558Z,5.03
2023-12-10T22:29:09.632Z,6.47
2023-12-10T22:31:36.773Z,6.78
2023-12-10T22:34:04.329Z,5.93
2023-12-10T22:36:33.228Z,7.82
2023-12-10T22:39:00.262Z,6.10
2023-12-10T22:41:27.410Z,7.53
2023-12-10T22:43:55.995Z,6.50
2023-12-10T22:46:23.040Z,7.03
2023-12-10T22:48:50.673Z,8.18
2023-12-10T22:51:18.224Z,5.95
2023-12-10T22:53:45.449Z,5.75
2023-12-10T22:56:12.557Z,5.95
2023-12-10T22:58:39.473Z,5.03
2023-12-10T23:01:06.889Z,6.13
2023-12-10T23:03:34.178Z,6.30
2023-12-10T23:06:01.475Z,6.40
2023-12-10T23:08:28.530Z,6.03
2023-12-10T23:10:55.662Z,5.60
2023-12-10T23:13:22.730Z,5.05
2023-12-10T23:16:10.557Z,5.50
2023-12-10T23:18:38.758Z,5.50
2023-12-10T23:21:06.448Z,6.15
2023-12-10T23:23:35.208Z,7.15
2023-12-10T23:26:03.497Z,5.55
2023-12-10T23:28:30.867Z,6.22
2023-12-10T23:30:57.956Z,4.65
2023-12-10T23:33:25.360Z,5.55
2023-12-10T23:35:52.347Z,6.07
2023-12-10T23:38:19.421Z,6.55
2023-12-10T23:40:46.622Z,5.80
2023-12-10T23:43:14.285Z,4.43
2023-12-10T23:45:41.475Z,7.88
2023-12-10T23:48:08.835Z,5.25
2023-12-10T23:50:35.736Z,5.40
2023-12-10T23:53:03.027Z,5.20
2023-12-10T23:55:32.298Z,5.40
2023-12-10T23:57:59.640Z,5.75
